ADDS TAF Board (Experimental) INFO Settings
IDs: Format: Expanded Condensed

KMIA - Miami Intl, FL, US

Issued at 1741 UTC 29 Jul 2016
Updated at 1944 UTC 29 Jul 2016
Time1853Z 29/20Z 29/21Z 29/22Z 29/23Z 30/00Z 30/01Z 30/02Z 30/03Z 30/04Z 30/05Z 30/06Z 30/07Z 30/08Z
Type OBS PRVL PRVL PRVL PRVL PRVL PRVL PRVL PRVL PRVL PRVL PRVL PRVL PRVL
VIS 10 >6 >6 >6 >6 >6 >6 >6 >6 >6 >6 >6 >6 >6
CIG 200 -- -- -- -- -- -- -- -- -- -- -- -- --
Cover BKN SCT SCT SCT SCT SCT SCT SCT SCT SCT SCT SCT SCT SCT
FltCat VFR VFR VFR VFR VFR VFR VFR VFR VFR VFR VFR VFR VFR VFR
WX -- VCTS VCTS VCTS VCTS VCTS VCTS -- -- -- -- -- -- --
WDir VRB 120 120 120 120 120 120 VRB VRB VRB VRB VRB VRB VRB
WSpd 5 7 7 7 7 7 7 3 3 3 3 3 3 3
WGst 16 -- -- -- -- -- -- -- -- -- -- -- -- --
R08/26
XWnd VRB -4 -4 -4 -4 -4 -4 VRB VRB VRB VRB VRB VRB VRB
HWnd VRB 6 6 6 6 6 6 VRB VRB VRB VRB VRB VRB VRB
R09/27
XWnd VRB -4 -4 -4 -4 -4 -4 VRB VRB VRB VRB VRB VRB VRB
HWnd VRB 6 6 6 6 6 6 VRB VRB VRB VRB VRB VRB VRB
R12/30
XWnd VRB -0 -0 -0 -0 -0 -0 VRB VRB VRB VRB VRB VRB VRB
HWnd VRB 7 7 7 7 7 7 VRB VRB VRB VRB VRB VRB VRB

Raw TAF
KMIA 291741Z 2918/3018 12007KT P6SM VCTS SCT035CB
  FM300200 VRB03KT P6SM FEW025 SCT250
  FM301400 14005KT P6SM SCT025 SCT250


Raw METAR
KMIA 291853Z VRB05G16KT 10SM FEW032TCU FEW065 SCT100 BKN200 31/24 A3005 RMK AO2 SLP174 TCU OHD T03110239
KMIA 291753Z 13005KT 10SM FEW032 SCT050 SCT090 31/24 A3006 RMK AO2 RAE25 SLP180 CB DSNT SW P0000 60007 T03110244 10317 20261 57005
KMIA 291653Z 07005KT 7SM -RA SCT030CB BKN050 BKN085 28/23 A3006 RMK AO2 SLP179 CB N MOV STNRY P0001 T02780233

METAR Board
Radar Display
Forecast Discussion

TAF Board Legend

Potential Impact
Threat None Slight Moderate High
Visibility (sm) ≥5.1 5.1>X≥3 3>X≥1 <1
Ceiling (100 ft) ≥30.1 30.1>X≥10 10>X≥5 <5
Wind Speed (kt) <10 10≤X<20 20≤X<30 ≥30
Wind Gust (kt) <15 15≤X<25 25≤X<35 ≥35
Weather No Wx Reported VCTS,-TS,-FZRA,SN TS,FZRA +TS,+FZRA,+SN